createdAt,value
2018-05-16T00:00:33.289Z,51.30
2018-05-16T00:03:01.609Z,54.60
2018-05-16T00:05:29.202Z,54.60
2018-05-16T00:07:56.727Z,59.50
2018-05-16T00:10:24.268Z,69.80
2018-05-16T00:12:51.842Z,80.10
2018-05-16T00:15:19.338Z,90.60
2018-05-16T00:17:46.895Z,94.00
2018-05-16T00:20:14.452Z,95.50
2018-05-16T00:22:41.946Z,97.20
2018-05-16T00:25:09.454Z,98.00
2018-05-16T00:27:36.956Z,98.80
2018-05-16T00:30:04.559Z,99.30
2018-05-16T00:32:32.014Z,99.20
2018-05-16T00:34:59.540Z,99.70
2018-05-16T00:37:27.065Z,99.90
2018-05-16T00:39:55.416Z,99.90
2018-05-16T00:42:22.961Z,99.90
2018-05-16T00:44:50.447Z,99.90
2018-05-16T00:47:17.948Z,99.90
2018-05-16T00:49:45.442Z,99.90
2018-05-16T00:52:12.971Z,99.90
2018-05-16T00:54:40.478Z,99.90
2018-05-16T00:57:07.952Z,99.90
2018-05-16T00:59:35.482Z,99.90
2018-05-16T01:02:03.093Z,99.90
2018-05-16T01:04:30.592Z,99.90
2018-05-16T01:06:58.117Z,99.90
2018-05-16T01:09:25.603Z,99.90
2018-05-16T01:11:53.882Z,99.90
2018-05-16T01:14:22.192Z,99.90
2018-05-16T01:16:50.428Z,99.90
2018-05-16T01:19:17.927Z,99.90
2018-05-16T01:21:45.440Z,99.90
2018-05-16T01:24:12.920Z,99.90
2018-05-16T01:26:40.492Z,99.90
2018-05-16T01:29:07.925Z,99.90
2018-05-16T01:31:35.561Z,99.90
2018-05-16T01:35:23.649Z,99.90
2018-05-16T01:37:51.199Z,99.90
2018-05-16T01:40:19.481Z,99.90
2018-05-16T01:42:47.799Z,99.90
2018-05-16T01:45:15.337Z,99.90
2018-05-16T01:47:42.836Z,99.90
2018-05-16T01:50:10.329Z,99.90
2018-05-16T01:52:37.942Z,99.90
2018-05-16T01:55:05.517Z,99.90
2018-05-16T01:57:33.349Z,99.90
2018-05-16T02:00:00.797Z,99.90
2018-05-16T02:02:28.333Z,99.90
2018-05-16T02:04:55.972Z,99.90
2018-05-16T02:07:23.492Z,99.90
2018-05-16T02:09:51.043Z,99.90
2018-05-16T02:12:18.484Z,99.90
2018-05-16T02:14:46.004Z,99.90
2018-05-16T02:17:14.463Z,99.90
2018-05-16T02:19:41.878Z,99.90
2018-05-16T02:22:09.404Z,99.90
2018-05-16T02:24:37.683Z,99.90
2018-05-16T02:27:05.906Z,99.90
2018-05-16T02:29:33.407Z,99.90
2018-05-16T02:32:01.049Z,99.90
2018-05-16T02:34:28.565Z,99.90
2018-05-16T02:36:56.066Z,99.90
2018-05-16T02:39:23.612Z,99.90
2018-05-16T02:41:51.815Z,99.90
2018-05-16T02:44:19.297Z,99.90
2018-05-16T02:46:46.922Z,99.90
2018-05-16T02:49:14.359Z,99.90
2018-05-16T02:51:43.433Z,99.90
2018-05-16T02:54:10.886Z,99.90
2018-05-16T02:56:38.401Z,99.90
2018-05-16T02:59:05.887Z,99.90
2018-05-16T03:01:33.331Z,99.90
2018-05-16T03:04:00.936Z,99.90
2018-05-16T03:06:28.534Z,99.90
2018-05-16T03:08:56.805Z,99.90
2018-05-16T03:11:24.302Z,99.90
2018-05-16T03:13:51.794Z,99.90
2018-05-16T03:16:19.309Z,99.90
2018-05-16T03:18:47.611Z,99.90
2018-05-16T03:21:15.395Z,99.90
2018-05-16T03:23:42.958Z,99.90
2018-05-16T03:26:10.497Z,99.90
2018-05-16T03:28:38.238Z,99.90
2018-05-16T03:31:05.827Z,99.90
2018-05-16T03:33:33.287Z,99.90
2018-05-16T03:36:01.560Z,99.90
2018-05-16T03:38:29.844Z,99.90
2018-05-16T03:40:58.173Z,99.90
2018-05-16T03:43:25.557Z,99.90
2018-05-16T03:45:53.120Z,99.90
2018-05-16T03:48:20.653Z,99.90
2018-05-16T03:50:48.952Z,99.90
2018-05-16T03:53:16.502Z,99.90
2018-05-16T03:55:44.069Z,99.90
2018-05-16T03:58:11.538Z,99.90
2018-05-16T04:00:39.527Z,99.90
2018-05-16T04:03:07.814Z,99.90
2018-05-16T04:05:35.453Z,99.90
2018-05-16T04:08:03.049Z,99.90
2018-05-16T04:10:30.770Z,99.90
2018-05-16T04:12:58.478Z,99.90
2018-05-16T04:15:25.969Z,99.90
2018-05-16T04:17:53.476Z,99.90
2018-05-16T04:20:20.941Z,99.90
2018-05-16T04:22:48.481Z,99.90
2018-05-16T04:25:16.080Z,99.80
2018-05-16T04:27:43.580Z,98.80
2018-05-16T04:30:11.200Z,98.30
2018-05-16T04:32:38.881Z,97.50
2018-05-16T04:35:06.336Z,97.60
2018-05-16T04:37:34.562Z,96.80
2018-05-16T04:40:03.149Z,96.20
2018-05-16T04:42:30.827Z,96.20
2018-05-16T04:44:58.310Z,95.30
2018-05-16T04:47:25.913Z,94.90
2018-05-16T04:49:53.359Z,94.60
2018-05-16T04:52:20.890Z,94.30
2018-05-16T04:54:48.401Z,93.50
2018-05-16T04:57:15.918Z,92.80
2018-05-16T04:59:44.201Z,92.80
2018-05-16T05:02:11.727Z,92.80
2018-05-16T05:04:39.336Z,92.80
2018-05-16T05:07:06.816Z,92.20
2018-05-16T05:09:34.632Z,92.80
2018-05-16T05:12:02.240Z,93.10
2018-05-16T05:14:29.776Z,92.80
2018-05-16T05:16:57.368Z,92.00
2018-05-16T05:19:25.136Z,91.60
2018-05-16T05:21:52.934Z,91.10
2018-05-16T05:24:20.370Z,90.40
2018-05-16T05:26:48.073Z,88.40
2018-05-16T05:29:15.622Z,87.50
2018-05-16T05:31:43.136Z,85.10
2018-05-16T05:34:10.701Z,85.20
2018-05-16T05:36:38.187Z,80.70
2018-05-16T05:39:05.720Z,80.00
2018-05-16T05:41:33.989Z,74.00
2018-05-16T05:44:01.519Z,74.30
2018-05-16T05:46:29.145Z,69.80
2018-05-16T05:48:57.431Z,71.50
2018-05-16T05:51:24.867Z,71.50
2018-05-16T05:53:52.440Z,75.00
2018-05-16T05:56:19.939Z,68.80
2018-05-16T05:58:47.588Z,65.20
2018-05-16T06:01:15.100Z,59.20
2018-05-16T06:03:42.621Z,58.40
2018-05-16T06:06:10.875Z,53.30
2018-05-16T06:08:38.414Z,53.40
2018-05-16T06:11:05.899Z,58.20
2018-05-16T06:13:33.374Z,57.60
2018-05-16T06:16:01.015Z,56.60
2018-05-16T06:18:29.234Z,52.90
2018-05-16T06:20:56.714Z,52.80
2018-05-16T06:23:25.039Z,41.70
2018-05-16T06:25:52.541Z,41.50
2018-05-16T06:28:20.232Z,41.60
2018-05-16T06:30:48.418Z,35.60
2018-05-16T06:33:15.944Z,35.80
2018-05-16T06:35:43.374Z,32.40
2018-05-16T06:38:11.024Z,30.80
2018-05-16T06:40:39.337Z,29.80
2018-05-16T06:43:06.900Z,29.30
2018-05-16T06:45:34.424Z,29.80
2018-05-16T06:48:02.116Z,29.60
2018-05-16T06:50:30.376Z,32.90
2018-05-16T06:52:58.033Z,32.90
2018-05-16T06:55:25.622Z,30.90
2018-05-16T06:57:53.087Z,32.00
2018-05-16T07:00:20.595Z,35.10
2018-05-16T07:02:49.147Z,36.40
2018-05-16T07:05:16.904Z,37.30
2018-05-16T07:07:44.404Z,37.00
2018-05-16T07:10:11.972Z,33.30
2018-05-16T07:12:39.603Z,29.80
2018-05-16T07:15:07.130Z,29.80
2018-05-16T07:17:34.637Z,30.70
2018-05-16T07:20:03.091Z,38.30
2018-05-16T07:22:30.526Z,38.10
2018-05-16T07:24:58.077Z,42.20
2018-05-16T07:27:25.559Z,39.90
2018-05-16T07:29:53.101Z,39.90
2018-05-16T07:32:20.765Z,39.40
2018-05-16T07:34:48.279Z,40.70
2018-05-16T07:37:15.742Z,40.80
2018-05-16T07:39:44.149Z,40.80
2018-05-16T07:42:11.660Z,40.80
2018-05-16T07:44:39.222Z,40.60
2018-05-16T07:47:07.065Z,41.80
2018-05-16T07:49:34.620Z,42.70
2018-05-16T07:52:02.183Z,43.10
2018-05-16T07:54:29.773Z,41.30
2018-05-16T07:56:57.506Z,39.20
2018-05-16T07:59:25.039Z,38.60
2018-05-16T08:01:52.765Z,36.40
2018-05-16T08:04:20.301Z,30.40
2018-05-16T08:06:48.654Z,29.30
2018-05-16T08:09:16.227Z,29.30
2018-05-16T08:11:43.820Z,30.90
2018-05-16T08:14:11.435Z,30.70
2018-05-16T08:16:39.289Z,29.80
2018-05-16T08:19:07.532Z,32.60
2018-05-16T08:21:35.124Z,32.50
2018-05-16T08:24:02.621Z,32.00
2018-05-16T08:26:30.107Z,34.00
2018-05-16T08:28:58.345Z,32.10
2018-05-16T08:31:25.942Z,32.00
2018-05-16T08:33:53.462Z,31.70
2018-05-16T08:36:21.672Z,30.70
2018-05-16T08:38:49.180Z,30.70
2018-05-16T08:41:17.483Z,29.10
2018-05-16T08:43:44.985Z,29.10
2018-05-16T08:46:13.328Z,34.30
2018-05-16T08:48:41.631Z,37.20
2018-05-16T08:51:09.219Z,37.20
2018-05-16T08:53:36.745Z,37.80
2018-05-16T08:56:04.390Z,36.80
2018-05-16T08:58:31.880Z,37.60
2018-05-16T09:00:59.396Z,34.40
2018-05-16T09:03:27.035Z,29.70
2018-05-16T09:05:54.563Z,29.10
2018-05-16T09:08:21.988Z,28.60
2018-05-16T09:10:49.510Z,29.00
2018-05-16T09:13:17.109Z,31.00
2018-05-16T09:15:47.004Z,36.60
2018-05-16T09:18:14.551Z,36.60
2018-05-16T09:20:42.046Z,37.40
2018-05-16T09:23:09.597Z,42.10
2018-05-16T09:25:38.143Z,42.90
2018-05-16T09:28:05.698Z,42.80
2018-05-16T09:30:34.234Z,40.90
2018-05-16T09:33:01.744Z,40.90
2018-05-16T09:35:30.032Z,42.20
2018-05-16T09:37:57.548Z,42.10
2018-05-16T09:40:25.270Z,41.90
2018-05-16T09:42:52.695Z,41.70
2018-05-16T09:45:20.926Z,40.20
2018-05-16T09:47:49.212Z,40.20
2018-05-16T09:50:16.763Z,40.30
2018-05-16T09:52:44.234Z,42.70
2018-05-16T09:55:11.776Z,41.90
2018-05-16T09:57:39.301Z,39.70
2018-05-16T10:00:07.722Z,37.90
2018-05-16T10:02:35.212Z,37.80
2018-05-16T10:05:02.751Z,37.90
2018-05-16T10:07:30.297Z,34.30
2018-05-16T10:09:58.620Z,33.90
2018-05-16T10:12:26.310Z,33.90
2018-05-16T10:14:55.628Z,32.70
2018-05-16T10:17:24.155Z,35.00
2018-05-16T10:19:51.667Z,35.10
2018-05-16T10:22:19.640Z,37.60
2018-05-16T10:24:47.915Z,37.10
2018-05-16T10:27:15.458Z,35.90
2018-05-16T10:29:43.026Z,33.70
2018-05-16T10:32:10.796Z,35.50
2018-05-16T10:34:38.555Z,35.10
2018-05-16T10:37:06.014Z,33.10
2018-05-16T10:39:33.581Z,34.00
2018-05-16T10:42:01.260Z,32.20
2018-05-16T10:44:28.850Z,31.10
2018-05-16T10:46:56.457Z,30.10
2018-05-16T10:49:24.137Z,29.80
2018-05-16T10:51:51.673Z,29.30
2018-05-16T10:54:19.432Z,29.40
2018-05-16T10:56:48.461Z,32.10
2018-05-16T10:59:15.990Z,32.10
2018-05-16T11:01:43.486Z,34.30
2018-05-16T11:04:11.099Z,35.90
2018-05-16T11:06:38.625Z,37.50
2018-05-16T11:09:06.899Z,39.60
2018-05-16T11:11:34.813Z,39.50
2018-05-16T11:14:02.319Z,42.10
2018-05-16T11:16:29.820Z,43.50
2018-05-16T11:18:57.914Z,42.90
2018-05-16T11:21:25.496Z,40.30
2018-05-16T11:23:53.204Z,41.10
2018-05-16T11:26:20.783Z,45.30
2018-05-16T11:28:49.642Z,39.00
2018-05-16T11:31:17.243Z,38.90
2018-05-16T11:33:44.675Z,39.50
2018-05-16T11:36:12.513Z,40.60
2018-05-16T11:38:40.057Z,41.40
2018-05-16T11:41:08.307Z,42.30
2018-05-16T11:43:36.628Z,42.80
2018-05-16T11:46:04.060Z,42.60
2018-05-16T11:48:31.706Z,43.50
2018-05-16T11:50:59.387Z,44.50
2018-05-16T11:53:27.642Z,54.90
2018-05-16T11:55:55.906Z,48.40
2018-05-16T11:58:24.671Z,49.20
2018-05-16T12:01:02.177Z,49.10
2018-05-16T12:03:29.726Z,54.10
2018-05-16T12:05:57.227Z,49.00
2018-05-16T12:08:25.495Z,64.20
2018-05-16T12:10:53.043Z,63.80
2018-05-16T12:13:20.731Z,63.50
2018-05-16T12:15:48.276Z,56.80
2018-05-16T12:18:16.531Z,62.40
2018-05-16T12:20:48.186Z,62.30
2018-05-16T12:23:16.221Z,66.00
2018-05-16T12:25:43.909Z,70.50
2018-05-16T12:28:11.397Z,86.80
2018-05-16T12:30:38.914Z,80.00
2018-05-16T12:33:06.556Z,91.30
2018-05-16T12:35:34.068Z,88.20
2018-05-16T12:38:01.602Z,70.60
2018-05-16T12:40:29.306Z,71.20
2018-05-16T12:42:58.111Z,79.00
2018-05-16T12:45:26.382Z,93.50
2018-05-16T12:47:54.644Z,93.60
2018-05-16T12:50:24.390Z,93.80
2018-05-16T12:52:51.919Z,94.10
2018-05-16T12:55:20.512Z,90.00
2018-05-16T12:57:47.999Z,90.00
2018-05-16T13:00:15.690Z,88.40
2018-05-16T13:02:43.177Z,87.50
2018-05-16T13:05:10.766Z,78.00
2018-05-16T13:07:39.371Z,78.10
2018-05-16T13:10:08.174Z,66.70
2018-05-16T13:12:36.025Z,66.50
2018-05-16T13:15:03.907Z,69.10
2018-05-16T13:17:31.824Z,54.60
2018-05-16T13:19:59.598Z,63.40
2018-05-16T13:22:27.122Z,62.90
2018-05-16T13:24:55.415Z,54.70
2018-05-16T13:27:23.711Z,57.80
2018-05-16T13:29:51.188Z,57.70
2018-05-16T13:32:18.825Z,57.70
2018-05-16T13:34:46.892Z,56.90
2018-05-16T13:37:14.503Z,59.40
2018-05-16T13:39:42.771Z,47.60
2018-05-16T13:42:10.457Z,47.60
2018-05-16T13:44:37.947Z,48.20
2018-05-16T13:47:05.502Z,45.90
2018-05-16T13:49:34.033Z,46.50
2018-05-16T13:52:01.660Z,45.90
2018-05-16T13:54:29.508Z,47.00
2018-05-16T13:56:57.102Z,47.90
2018-05-16T13:59:24.797Z,46.30
2018-05-16T14:01:52.344Z,46.80
2018-05-16T14:04:19.862Z,45.00
2018-05-16T14:06:47.565Z,43.80
2018-05-16T14:09:15.021Z,45.80
2018-05-16T14:11:42.564Z,42.30
2018-05-16T14:14:10.479Z,41.40
2018-05-16T14:16:38.766Z,42.20
2018-05-16T14:19:06.268Z,42.10
2018-05-16T14:21:33.809Z,41.10
2018-05-16T14:24:01.409Z,40.50
2018-05-16T14:26:29.821Z,37.80
2018-05-16T14:28:57.372Z,37.70
2018-05-16T14:31:26.957Z,38.60
2018-05-16T14:33:54.560Z,38.70
2018-05-16T14:36:22.189Z,35.90
2018-05-16T14:38:49.704Z,35.80
2018-05-16T14:41:18.067Z,33.80
2018-05-16T14:43:45.600Z,33.80
2018-05-16T14:46:13.447Z,34.40
2018-05-16T14:48:41.106Z,34.20
2018-05-16T14:51:08.693Z,36.00
2018-05-16T14:53:37.088Z,37.10
2018-05-16T14:56:05.304Z,37.10
2018-05-16T14:58:32.862Z,38.90
2018-05-16T15:01:00.386Z,39.60
2018-05-16T15:03:27.964Z,41.20
2018-05-16T15:05:55.449Z,40.70
2018-05-16T15:08:23.018Z,42.80
2018-05-16T15:10:50.529Z,44.90
2018-05-16T15:13:18.061Z,44.90
2018-05-16T15:15:46.603Z,46.80
2018-05-16T15:18:14.117Z,46.70
2018-05-16T15:20:42.611Z,52.20
2018-05-16T15:23:10.151Z,52.20
2018-05-16T15:25:37.748Z,54.40
2018-05-16T15:28:06.310Z,63.20
2018-05-16T15:30:34.010Z,63.10
2018-05-16T15:33:01.711Z,71.30
2018-05-16T15:35:30.991Z,90.70
2018-05-16T15:37:59.595Z,90.60
2018-05-16T15:40:28.175Z,93.30
2018-05-16T15:42:56.151Z,95.70
2018-05-16T15:45:23.659Z,97.60
2018-05-16T15:47:51.166Z,98.10
2018-05-16T15:50:18.743Z,97.80
2018-05-16T15:52:47.076Z,99.30
2018-05-16T15:55:14.856Z,99.30
2018-05-16T15:57:43.176Z,99.70
2018-05-16T16:00:11.030Z,99.70
2018-05-16T16:02:38.584Z,99.90
2018-05-16T16:05:06.898Z,99.90
2018-05-16T16:07:34.501Z,99.90
2018-05-16T16:10:02.113Z,99.90
2018-05-16T16:12:29.983Z,99.90
2018-05-16T16:14:58.354Z,99.90
2018-05-16T16:17:25.864Z,99.90
2018-05-16T16:19:53.457Z,99.90
2018-05-16T16:22:21.830Z,99.90
2018-05-16T16:24:49.346Z,99.90
2018-05-16T16:27:17.071Z,99.90
2018-05-16T16:29:44.784Z,98.70
2018-05-16T16:32:13.368Z,99.60
2018-05-16T16:34:41.050Z,99.60
2018-05-16T16:37:08.993Z,97.50
2018-05-16T16:39:37.366Z,98.30
2018-05-16T16:42:04.891Z,98.30
2018-05-16T16:44:32.630Z,98.40
2018-05-16T16:47:00.392Z,97.90
2018-05-16T16:49:27.943Z,98.70
2018-05-16T16:51:55.421Z,96.40
2018-05-16T16:54:23.081Z,96.80
2018-05-16T16:56:50.652Z,97.70
2018-05-16T16:59:18.168Z,99.00
2018-05-16T17:01:45.985Z,99.90
2018-05-16T17:04:13.499Z,99.90
2018-05-16T17:06:41.093Z,99.90
2018-05-16T17:09:08.693Z,99.90
2018-05-16T17:11:36.351Z,99.90
2018-05-16T17:14:03.882Z,99.90
2018-05-16T17:16:32.139Z,99.40
2018-05-16T17:18:59.886Z,99.30
2018-05-16T17:21:27.393Z,97.60
2018-05-16T17:23:54.897Z,98.90
2018-05-16T17:26:22.389Z,99.40
2018-05-16T17:28:49.899Z,99.80
2018-05-16T17:31:18.221Z,99.90
2018-05-16T17:33:45.713Z,99.90
2018-05-16T17:36:13.188Z,99.90
2018-05-16T17:38:41.460Z,99.90
2018-05-16T17:41:08.914Z,99.90
2018-05-16T17:43:37.219Z,99.90
2018-05-16T17:46:05.589Z,99.90
2018-05-16T17:48:33.761Z,99.90
2018-05-16T17:51:01.207Z,99.90
2018-05-16T17:53:29.678Z,99.90
2018-05-16T17:55:57.199Z,99.90
2018-05-16T17:58:24.702Z,99.90
2018-05-16T18:00:52.302Z,99.90
2018-05-16T18:03:19.779Z,99.90
2018-05-16T18:05:48.596Z,99.90
2018-05-16T18:08:16.193Z,99.90
2018-05-16T18:10:43.746Z,99.90
2018-05-16T18:13:11.282Z,99.90
2018-05-16T18:15:38.794Z,99.90
2018-05-16T18:18:06.288Z,99.90
2018-05-16T18:20:34.581Z,99.90
2018-05-16T18:23:02.083Z,99.90
2018-05-16T18:25:29.580Z,99.90
2018-05-16T18:27:57.160Z,99.90
2018-05-16T18:30:25.405Z,99.90
2018-05-16T18:32:53.599Z,99.90
2018-05-16T18:35:21.158Z,99.90
2018-05-16T18:37:48.663Z,99.90
2018-05-16T18:40:16.212Z,99.90
2018-05-16T18:42:43.924Z,99.90
2018-05-16T18:45:12.039Z,99.90
2018-05-16T18:47:39.543Z,99.90
2018-05-16T18:50:07.036Z,99.90
2018-05-16T18:52:34.579Z,99.90
2018-05-16T18:55:02.360Z,99.90
2018-05-16T18:57:29.937Z,99.90
2018-05-16T18:59:57.499Z,99.90
2018-05-16T19:02:25.712Z,99.90
2018-05-16T19:04:54.050Z,99.90
2018-05-16T19:07:21.555Z,99.90
2018-05-16T19:09:49.070Z,99.90
2018-05-16T19:12:17.357Z,99.90
2018-05-16T19:14:44.859Z,99.90
2018-05-16T19:17:12.429Z,99.90
2018-05-16T19:19:39.968Z,99.90
2018-05-16T19:22:07.737Z,99.90
2018-05-16T19:24:35.270Z,99.90
2018-05-16T19:27:02.813Z,99.90
2018-05-16T19:29:30.278Z,99.90
2018-05-16T19:31:57.814Z,99.90
2018-05-16T19:34:25.328Z,99.90
2018-05-16T19:36:53.664Z,99.80
2018-05-16T19:39:21.235Z,99.80
2018-05-16T19:41:48.772Z,99.60
2018-05-16T19:44:16.470Z,99.90
2018-05-16T19:46:43.962Z,99.90
2018-05-16T19:49:11.561Z,99.90
2018-05-16T19:51:39.124Z,99.50
2018-05-16T19:54:06.844Z,99.40
2018-05-16T19:56:35.184Z,99.00
2018-05-16T19:59:02.685Z,99.00
2018-05-16T20:01:30.126Z,98.30
2018-05-16T20:03:58.392Z,98.00
2018-05-16T20:06:25.959Z,98.00
2018-05-16T20:08:53.969Z,98.30
2018-05-16T20:11:22.965Z,97.70
2018-05-16T20:13:50.894Z,97.70
2018-05-16T20:16:19.025Z,98.10
2018-05-16T20:18:47.147Z,98.10
2018-05-16T20:21:14.666Z,98.10
2018-05-16T20:23:42.576Z,98.00
2018-05-16T20:26:10.128Z,98.20
2018-05-16T20:28:37.692Z,98.50
2018-05-16T20:31:05.420Z,98.40
2018-05-16T20:33:32.912Z,98.70
2018-05-16T20:36:00.568Z,98.70
2018-05-16T20:38:28.122Z,99.00
2018-05-16T20:40:55.801Z,99.00
2018-05-16T20:43:23.763Z,99.10
2018-05-16T20:45:51.345Z,99.10
2018-05-16T20:48:18.880Z,99.30
2018-05-16T20:50:47.217Z,99.80
2018-05-16T20:53:14.961Z,99.80
2018-05-16T20:55:42.492Z,99.70
2018-05-16T20:58:10.759Z,99.90
2018-05-16T21:00:38.360Z,99.90
2018-05-16T21:03:05.980Z,99.90
2018-05-16T21:05:34.259Z,99.70
2018-05-16T21:08:01.739Z,99.80
2018-05-16T21:10:29.274Z,99.90
2018-05-16T21:12:57.638Z,99.90
2018-05-16T21:15:25.123Z,99.90
2018-05-16T21:17:52.626Z,99.90
2018-05-16T21:20:20.857Z,99.90
2018-05-16T21:22:48.433Z,99.90
2018-05-16T21:25:16.080Z,99.90
2018-05-16T21:27:43.603Z,99.90
2018-05-16T21:30:12.533Z,99.90
2018-05-16T21:32:39.981Z,99.90
2018-05-16T21:35:07.689Z,99.90
2018-05-16T21:37:35.216Z,99.90
2018-05-16T21:40:02.752Z,99.90
2018-05-16T21:42:30.287Z,99.90
2018-05-16T21:44:57.807Z,99.90
2018-05-16T21:47:26.065Z,99.90
2018-05-16T21:49:54.340Z,99.90
2018-05-16T21:52:21.877Z,99.90
2018-05-16T21:54:49.385Z,99.90
2018-05-16T21:57:16.892Z,99.90
2018-05-16T21:59:44.375Z,99.90
2018-05-16T22:02:13.070Z,99.90
2018-05-16T22:04:40.562Z,99.90
2018-05-16T22:07:08.846Z,99.90
2018-05-16T22:09:36.541Z,99.90
2018-05-16T22:12:05.195Z,99.90
2018-05-16T22:14:32.833Z,99.90
2018-05-16T22:17:00.342Z,99.90
2018-05-16T22:19:27.872Z,99.90
2018-05-16T22:21:56.098Z,99.90
2018-05-16T22:24:23.602Z,99.90
2018-05-16T22:26:51.096Z,99.90
2018-05-16T22:29:18.566Z,99.90
2018-05-16T22:31:46.077Z,99.90
2018-05-16T22:34:13.585Z,99.90
2018-05-16T22:36:41.130Z,99.90
2018-05-16T22:39:09.438Z,99.90
2018-05-16T22:41:36.975Z,99.90
2018-05-16T22:44:05.309Z,99.90
2018-05-16T22:46:32.821Z,99.90
2018-05-16T22:49:00.343Z,99.90
2018-05-16T22:51:27.870Z,99.90
2018-05-16T22:53:56.140Z,99.90
2018-05-16T22:56:24.368Z,99.90
2018-05-16T22:58:51.954Z,99.90
2018-05-16T23:01:19.430Z,99.90
2018-05-16T23:03:46.984Z,99.90
2018-05-16T23:06:14.568Z,99.90
2018-05-16T23:08:42.093Z,99.70
2018-05-16T23:11:09.616Z,99.70
2018-05-16T23:13:37.129Z,99.90
2018-05-16T23:16:04.681Z,99.90
2018-05-16T23:18:32.116Z,99.90
2018-05-16T23:20:59.620Z,99.90
2018-05-16T23:23:27.271Z,99.90
2018-05-16T23:25:54.823Z,99.90
2018-05-16T23:28:22.331Z,99.40
2018-05-16T23:30:50.042Z,99.40
2018-05-16T23:33:18.191Z,99.90
2018-05-16T23:35:46.459Z,99.80
2018-05-16T23:38:14.719Z,99.90
2018-05-16T23:40:42.240Z,99.90
2018-05-16T23:43:09.770Z,99.90
2018-05-16T23:45:38.099Z,99.90
2018-05-16T23:48:05.688Z,99.90
2018-05-16T23:50:33.872Z,99.90
2018-05-16T23:53:01.420Z,99.90
2018-05-16T23:55:28.887Z,99.90
2018-05-16T23:57:56.380Z,99.90
